Time;durP1;ratioP1;P1;durP2;ratioP2;P2;SDS_P1;SDS_P2;PMS_P1;PMS_P2;Temp;Humidity;BMP_temperature;BMP_pressure;BME280_temperature;BME280_humidity;BME280_pressure;Samples;Min_cycle;Max_cycle;Signal;HPM_P1;HPM_P2
2023/04/05 00:01:20;;;;;;;14.20;8.00;;;;;;;-4.08;70.50;97075.99;109308;1273;23271;-78
2023/04/05 00:03:53;;;;;;;16.30;8.50;;;;;;;-4.03;70.67;97072.52;109345;1271;22549;-78
2023/04/05 00:06:27;;;;;;;11.80;7.60;;;;;;;-3.95;70.74;97064.81;109240;1272;69614;-79
2023/04/05 00:09:00;;;;;;;11.90;7.60;;;;;;;-3.86;70.82;97065.38;109283;1265;22623;-78
2023/04/05 00:11:33;;;;;;;11.80;6.70;;;;;;;-3.79;70.70;97061.79;109263;1273;24189;-78
2023/04/05 00:14:04;;;;;;;10.30;6.60;;;;;;;-3.76;70.86;97057.96;109321;1266;22479;-78
2023/04/05 00:16:36;;;;;;;12.70;6.90;;;;;;;-3.75;70.78;97052.00;109247;1272;72673;-78
2023/04/05 00:19:07;;;;;;;13.20;7.40;;;;;;;-3.70;71.02;97052.06;109357;1271;22585;-79
2023/04/05 00:21:39;;;;;;;11.20;7.20;;;;;;;-3.63;71.06;97048.95;109267;1273;22646;-78
2023/04/05 00:24:14;;;;;;;12.70;6.90;;;;;;;-3.60;71.13;97042.96;109294;1273;23291;-78
2023/04/05 00:26:45;;;;;;;8.90;5.90;;;;;;;-3.59;71.33;97045.73;109269;1272;51275;-78
2023/04/05 00:29:16;;;;;;;13.60;7.60;;;;;;;-3.54;71.40;97044.23;109459;1272;22526;-78
2023/04/05 00:31:47;;;;;;;11.70;7.60;;;;;;;-3.48;71.64;97046.32;109453;1272;22566;-78
2023/04/05 00:34:18;;;;;;;9.70;5.90;;;;;;;-3.51;71.93;97046.83;109480;1269;22629;-78
2023/04/05 00:36:49;;;;;;;10.60;6.50;;;;;;;-3.56;72.03;97043.80;109436;1269;59820;-78
2023/04/05 00:39:20;;;;;;;9.90;6.10;;;;;;;-3.59;71.99;97042.15;109407;1271;23039;-78
2023/04/05 00:41:51;;;;;;;9.50;5.90;;;;;;;-3.55;72.30;97040.95;109455;1270;22546;-78
2023/04/05 00:44:22;;;;;;;12.40;6.50;;;;;;;-3.49;72.47;97039.13;109513;1270;22572;-79
2023/04/05 00:46:54;;;;;;;11.60;6.40;;;;;;;-3.43;72.36;97039.00;109318;1259;62095;-80
2023/04/05 00:49:25;;;;;;;10.70;6.90;;;;;;;-3.39;72.37;97038.02;109397;1266;22539;-80
2023/04/05 00:51:56;;;;;;;8.60;5.70;;;;;;;-3.34;72.16;97037.69;109385;1268;22519;-80
2023/04/05 00:54:28;;;;;;;10.20;5.90;;;;;;;-3.29;71.74;97044.36;109441;1271;22566;-80
2023/04/05 00:57:00;;;;;;;8.80;6.10;;;;;;;-3.24;71.67;97041.27;109554;1268;52608;-79
2023/04/05 00:59:31;;;;;;;9.70;6.40;;;;;;;-3.21;71.20;97039.27;109413;1271;22515;-80
2023/04/05 01:02:06;;;;;;;8.70;6.00;;;;;;;-3.21;71.68;97044.33;109525;1270;23241;-80
2023/04/05 01:04:38;;;;;;;8.50;5.70;;;;;;;-3.28;72.09;97044.74;109352;1271;22472;-80
2023/04/05 01:07:21;;;;;;;9.40;6.20;;;;;;;-3.33;72.11;97044.33;109359;1268;39879;-80
2023/04/05 01:09:58;;;;;;;9.10;5.90;;;;;;;-3.30;72.27;97041.36;109386;1268;22456;-80
2023/04/05 01:12:32;;;;;;;12.50;6.40;;;;;;;-3.27;72.57;97038.92;109378;1266;22481;-80
2023/04/05 01:15:04;;;;;;;9.00;5.50;;;;;;;-3.23;72.18;97039.26;109385;1271;22461;-80
2023/04/05 01:17:37;;;;;;;10.20;6.80;;;;;;;-3.20;71.87;97038.67;109340;1268;56517;-80
2023/04/05 01:20:12;;;;;;;12.30;6.40;;;;;;;-3.17;71.97;97037.82;109345;1271;22987;-80
2023/04/05 01:23:18;;;;;;;8.60;5.60;;;;;;;-3.16;71.55;97036.35;109366;1268;22491;-80
2023/04/05 01:26:13;;;;;;;9.80;5.90;;;;;;;-3.12;71.32;97036.95;109389;1271;23817;-80
2023/04/05 01:29:03;;;;;;;10.30;6.20;;;;;;;-3.11;71.19;97036.52;109505;1271;24229;-80
2023/04/05 01:31:42;;;;;;;9.40;5.60;;;;;;;-3.10;71.53;97033.48;109453;1269;25407;-80
2023/04/05 01:34:26;;;;;;;8.40;4.80;;;;;;;-3.06;71.60;97033.05;109535;1271;22526;-80
2023/04/05 01:37:02;;;;;;;8.80;5.30;;;;;;;-3.04;71.23;97032.63;109600;1269;37724;-80
2023/04/05 01:39:35;;;;;;;10.00;6.30;;;;;;;-3.03;71.12;97028.48;109536;1268;23103;-80
2023/04/05 01:42:07;;;;;;;9.30;5.40;;;;;;;-3.00;71.41;97027.93;109592;1270;22757;-80
2023/04/05 01:44:38;;;;;;;9.20;5.30;;;;;;;-2.98;71.18;97022.16;109632;1267;22516;-80
2023/04/05 01:47:09;;;;;;;9.40;5.50;;;;;;;-2.96;71.07;97020.58;109532;1270;28193;-80
2023/04/05 01:49:40;;;;;;;8.40;5.60;;;;;;;-2.96;71.22;97018.55;109589;1270;22566;-80
2023/04/05 01:52:11;;;;;;;8.80;5.80;;;;;;;-2.97;71.42;97023.55;109582;1262;23222;-80
2023/04/05 01:54:42;;;;;;;9.40;5.80;;;;;;;-3.06;71.94;97024.23;109639;1267;22556;-80
2023/04/05 01:57:13;;;;;;;9.80;5.90;;;;;;;-3.13;72.18;97019.43;109482;1270;37095;-80
2023/04/05 01:59:45;;;;;;;11.10;6.60;;;;;;;-3.19;71.82;97015.39;109490;1270;22618;-80
2023/04/05 02:02:16;;;;;;;13.70;6.50;;;;;;;-3.23;71.97;97018.61;109441;1268;23396;-80
2023/04/05 02:04:47;;;;;;;12.10;6.40;;;;;;;-3.30;72.41;97017.52;109392;1270;22540;-80
2023/04/05 02:07:18;;;;;;;11.60;6.50;;;;;;;-3.36;72.22;97017.38;109452;1269;48796;-80
2023/04/05 02:09:49;;;;;;;12.80;6.20;;;;;;;-3.36;72.20;97013.07;109548;1269;22508;-80
2023/04/05 02:12:21;;;;;;;10.90;5.90;;;;;;;-3.34;72.33;97012.49;109594;1270;22479;-80
2023/04/05 02:14:52;;;;;;;10.30;6.10;;;;;;;-3.34;72.21;97014.21;109664;1269;22647;-80
2023/04/05 02:17:24;;;;;;;9.00;6.20;;;;;;;-3.38;71.90;97014.63;109356;1267;40602;-80
2023/04/05 02:20:01;;;;;;;9.70;5.80;;;;;;;-3.40;71.87;97016.18;109508;1269;22503;-80
2023/04/05 02:22:32;;;;;;;8.90;6.20;;;;;;;-3.44;71.99;97015.42;109476;1269;24352;-80
2023/04/05 02:25:03;;;;;;;9.80;5.90;;;;;;;-3.48;72.06;97013.46;109598;1260;22536;-80
2023/04/05 02:27:34;;;;;;;13.10;7.10;;;;;;;-3.53;72.24;97017.23;109485;1270;64975;-79
2023/04/05 02:30:07;;;;;;;14.80;8.40;;;;;;;-3.58;72.07;97018.30;109819;1269;25252;-80
2023/04/05 02:32:38;;;;;;;11.40;7.30;;;;;;;-3.65;72.18;97011.98;109758;1269;23015;-80
2023/04/05 02:35:10;;;;;;;12.20;5.90;;;;;;;-3.71;72.63;97011.32;109689;1266;22819;-80
2023/04/05 02:37:41;;;;;;;14.00;7.20;;;;;;;-3.78;72.72;97011.77;109619;1248;61014;-80
2023/04/05 02:40:15;;;;;;;12.70;7.30;;;;;;;-3.84;72.72;97011.61;109423;1270;22461;-80
2023/04/05 02:42:46;;;;;;;11.70;6.60;;;;;;;-3.93;73.29;97002.48;109425;1271;22539;-80
2023/04/05 02:45:18;;;;;;;10.70;6.50;;;;;;;-4.03;73.53;97006.63;109369;1264;22545;-79
2023/04/05 02:47:49;;;;;;;10.20;6.20;;;;;;;-4.14;74.00;97003.91;109518;1269;41527;-79
2023/04/05 02:50:22;;;;;;;11.00;7.00;;;;;;;-4.23;74.26;97004.38;109674;1269;25405;-79
2023/04/05 02:52:53;;;;;;;10.90;5.80;;;;;;;-4.30;74.57;97002.40;109679;1269;22569;-79
2023/04/05 02:55:24;;;;;;;11.80;6.30;;;;;;;-4.36;74.91;96998.51;109717;1269;22470;-79
2023/04/05 02:58:00;;;;;;;10.20;6.00;;;;;;;-4.39;75.02;97000.81;109629;1269;37007;-79
2023/04/05 03:00:32;;;;;;;11.00;6.20;;;;;;;-4.42;75.13;97005.02;109716;1270;22550;-79
2023/04/05 03:03:03;;;;;;;10.80;7.10;;;;;;;-4.49;75.08;97007.64;109567;1267;22513;-79
2023/04/05 03:05:34;;;;;;;11.60;6.50;;;;;;;-4.54;75.33;97010.80;109597;1270;22582;-80
2023/04/05 03:08:06;;;;;;;12.60;7.30;;;;;;;-4.56;75.39;97012.31;109539;1267;64671;-79
2023/04/05 03:10:40;;;;;;;14.20;8.20;;;;;;;-4.59;75.55;97009.08;109796;1268;23049;-79
2023/04/05 03:13:11;;;;;;;13.10;7.80;;;;;;;-4.61;75.61;97011.84;109488;1270;23316;-79
2023/04/05 03:15:42;;;;;;;14.10;7.40;;;;;;;-4.63;75.84;97011.95;109592;1270;22446;-79
2023/04/05 03:18:13;;;;;;;10.50;7.10;;;;;;;-4.62;75.74;97013.27;109523;1270;42792;-79
2023/04/05 03:20:44;;;;;;;11.40;7.50;;;;;;;-4.58;75.69;97008.94;109769;1268;22550;-79
2023/04/05 03:23:15;;;;;;;11.30;6.60;;;;;;;-4.57;75.51;97015.64;109584;1266;24987;-79
2023/04/05 03:25:46;;;;;;;14.50;8.60;;;;;;;-4.55;75.45;97015.95;109640;1270;22543;-79
2023/04/05 03:28:18;;;;;;;12.50;7.10;;;;;;;-4.58;75.57;97009.22;109072;1266;45377;-79
2023/04/05 03:30:49;;;;;;;12.10;7.20;;;;;;;-4.61;75.78;97012.55;109175;1266;22513;-78
2023/04/05 03:33:20;;;;;;;12.50;6.60;;;;;;;-4.63;75.76;97016.42;109056;1263;22522;-78
2023/04/05 03:35:51;;;;;;;11.70;6.70;;;;;;;-4.66;75.94;97013.41;109066;1270;23813;-78
2023/04/05 03:38:22;;;;;;;11.60;6.70;;;;;;;-4.69;76.02;97010.38;109020;1270;65928;-78
2023/04/05 03:40:53;;;;;;;12.50;7.20;;;;;;;-4.73;76.25;97010.11;109078;1270;22518;-78
2023/04/05 03:43:24;;;;;;;10.80;6.90;;;;;;;-4.79;76.41;97010.63;109034;1270;24261;-78
2023/04/05 03:45:55;;;;;;;16.70;7.50;;;;;;;-4.85;76.77;97015.06;108923;1270;24754;-78
2023/04/05 03:48:26;;;;;;;10.40;7.30;;;;;;;-4.86;76.84;97011.52;109058;1269;56531;-78
2023/04/05 03:50:57;;;;;;;12.00;7.00;;;;;;;-4.88;77.03;97010.69;108778;1271;24199;-78
2023/04/05 03:53:29;;;;;;;12.50;6.80;;;;;;;-4.89;77.34;97010.86;108688;1271;22525;-78
2023/04/05 03:56:00;;;;;;;11.60;6.70;;;;;;;-4.90;77.48;97010.61;108838;1268;22574;-78
2023/04/05 03:58:31;;;;;;;11.10;6.90;;;;;;;-4.90;77.35;97006.27;109013;1269;57733;-78
2023/04/05 04:01:02;;;;;;;12.70;6.50;;;;;;;-4.88;77.39;97007.06;109001;1263;26019;-78
2023/04/05 04:03:36;;;;;;;10.70;5.60;;;;;;;-4.90;77.55;97004.48;108997;1266;22541;-78
2023/04/05 04:06:08;;;;;;;12.80;6.70;;;;;;;-4.94;77.70;97005.07;108986;1269;22508;-78
2023/04/05 04:08:39;;;;;;;10.20;6.20;;;;;;;-4.97;77.76;97008.67;108935;1265;62464;-78
2023/04/05 04:11:10;;;;;;;11.70;6.20;;;;;;;-4.97;77.74;97010.48;109764;1269;22501;-78
2023/04/05 04:13:41;;;;;;;10.50;6.10;;;;;;;-5.05;77.70;97012.08;108940;1268;25482;-78
2023/04/05 04:16:12;;;;;;;10.30;5.80;;;;;;;-5.14;77.99;97016.52;109068;1267;22647;-79
2023/04/05 04:18:43;;;;;;;9.40;5.50;;;;;;;-5.18;78.24;97016.88;108952;1270;23408;-78
2023/04/05 04:21:16;;;;;;;10.00;5.70;;;;;;;-5.21;78.57;97011.10;108906;1270;22620;-78
2023/04/05 04:23:48;;;;;;;9.20;5.40;;;;;;;-5.19;78.55;97017.53;108830;1270;22963;-78
2023/04/05 04:26:27;;;;;;;9.70;6.00;;;;;;;-5.17;78.61;97014.66;109132;1266;51660;-78
2023/04/05 04:29:00;;;;;;;13.00;6.50;;;;;;;-5.13;78.61;97017.00;108944;1270;22513;-78
2023/04/05 04:31:32;;;;;;;9.30;5.50;;;;;;;-5.06;78.51;97015.66;108968;1268;22544;-78
2023/04/05 04:34:04;;;;;;;11.00;6.10;;;;;;;-5.02;78.52;97018.21;109157;1269;22512;-78
2023/04/05 04:36:35;;;;;;;11.70;6.00;;;;;;;-4.99;78.32;97018.48;108893;1270;30950;-78
2023/04/05 04:39:07;;;;;;;11.30;6.40;;;;;;;-4.87;78.20;97020.21;109076;1269;22522;-78
2023/04/05 04:41:38;;;;;;;12.30;6.70;;;;;;;-4.77;78.14;97022.41;109040;1269;22627;-78
2023/04/05 04:44:13;;;;;;;10.10;5.90;;;;;;;-4.61;77.94;97023.73;109004;1269;22542;-78
2023/04/05 04:46:44;;;;;;;11.30;6.50;;;;;;;-4.55;77.70;97023.59;108908;1270;40475;-77
2023/04/05 04:49:16;;;;;;;13.90;7.10;;;;;;;-4.41;77.73;97020.77;108992;1269;22532;-77
2023/04/05 04:51:47;;;;;;;15.20;7.60;;;;;;;-4.13;77.35;97019.59;108956;1269;22557;-77
2023/04/05 04:54:19;;;;;;;12.40;7.00;;;;;;;-3.70;77.28;97019.34;108908;1262;24433;-77
2023/04/05 04:56:50;;;;;;;13.90;7.50;;;;;;;-3.12;77.09;97019.00;108878;1270;47451;-77
2023/04/05 04:59:22;;;;;;;15.20;8.20;;;;;;;-2.33;77.06;97015.89;108950;1270;22522;-77
2023/04/05 05:01:53;;;;;;;19.80;10.80;;;;;;;-1.68;75.99;97012.06;108946;1270;22505;-79
2023/04/05 05:04:24;;;;;;;17.50;10.00;;;;;;;-1.18;74.65;97008.84;108949;1270;22547;-78
2023/04/05 05:06:55;;;;;;;16.80;10.60;;;;;;;-0.69;73.05;97005.19;108868;1256;83550;-79
2023/04/05 05:09:26;;;;;;;21.70;13.60;;;;;;;-0.17;72.02;97006.73;108898;1266;22516;-80
2023/04/05 05:11:58;;;;;;;22.20;12.40;;;;;;;0.53;71.13;97006.20;108941;1270;22531;-79
2023/04/05 05:14:29;;;;;;;18.60;12.00;;;;;;;1.17;69.51;97011.19;108933;1269;25479;-79
2023/04/05 05:17:00;;;;;;;17.90;11.90;;;;;;;1.80;68.57;97010.05;109034;1269;32492;-80
2023/04/05 05:19:34;;;;;;;16.80;10.10;;;;;;;2.06;66.96;97011.92;108930;1262;22514;-79
2023/04/05 05:22:05;;;;;;;13.70;9.60;;;;;;;2.43;66.73;97011.43;108950;1269;23064;-79
2023/04/05 05:24:36;;;;;;;13.70;8.80;;;;;;;3.23;66.60;97013.51;108949;1263;22688;-79
2023/04/05 05:27:07;;;;;;;12.50;8.00;;;;;;;4.64;67.27;97011.13;108963;1269;53278;-80
2023/04/05 05:29:38;;;;;;;10.40;6.60;;;;;;;6.08;65.36;97007.02;109005;1269;24171;-80
2023/04/05 05:32:14;;;;;;;12.00;7.40;;;;;;;6.85;62.10;97005.59;108929;1270;24212;-80
2023/04/05 05:34:47;;;;;;;9.60;6.90;;;;;;;7.54;61.10;97002.10;108922;1268;22520;-80
2023/04/05 05:37:18;;;;;;;9.30;6.50;;;;;;;8.50;59.84;96997.83;108865;1270;71569;-80
2023/04/05 05:39:49;;;;;;;10.20;6.90;;;;;;;9.56;58.27;96997.97;109561;1247;23109;-80
2023/04/05 05:42:21;;;;;;;9.90;6.50;;;;;;;10.43;56.49;96996.88;109561;1267;23337;-80
2023/04/05 05:44:52;;;;;;;10.60;7.10;;;;;;;10.82;53.92;96993.56;109579;1267;25250;-81
2023/04/05 05:47:23;;;;;;;9.90;6.90;;;;;;;11.27;53.44;96991.69;109338;1270;39145;-81
2023/04/05 05:49:55;;;;;;;10.90;7.70;;;;;;;11.89;51.11;96996.60;109270;1271;22533;-80
2023/04/05 05:52:26;;;;;;;11.20;8.00;;;;;;;11.71;48.74;96999.85;109258;1271;22548;-81
2023/04/05 05:54:56;;;;;;;9.80;7.00;;;;;;;11.60;48.19;96998.85;109250;1271;22526;-81
2023/04/05 05:57:28;;;;;;;8.80;6.60;;;;;;;11.50;45.52;97002.52;109208;1269;70384;-81
2023/04/05 05:59:59;;;;;;;10.10;6.80;;;;;;;10.76;44.38;96996.92;109278;1268;22525;-81
2023/04/05 06:02:31;;;;;;;10.90;7.30;;;;;;;10.35;43.60;97001.23;109209;1271;22637;-80
2023/04/05 06:05:03;;;;;;;10.10;7.60;;;;;;;10.48;45.08;96997.89;109323;1271;24269;-79
2023/04/05 06:07:37;;;;;;;8.40;6.30;;;;;;;11.31;45.13;96993.64;109217;1271;70966;-80
2023/04/05 06:10:12;;;;;;;9.30;7.40;;;;;;;11.67;43.57;96992.75;109244;1271;22615;-80
2023/04/05 06:12:43;;;;;;;9.60;6.40;;;;;;;11.60;42.97;96991.64;109271;1270;24369;-80
2023/04/05 06:15:14;;;;;;;11.40;7.20;;;;;;;11.89;42.63;96986.80;109198;1272;22533;-80
2023/04/05 06:17:45;;;;;;;8.60;6.50;;;;;;;12.63;43.06;96979.75;109258;1264;46098;-80
2023/04/05 06:20:16;;;;;;;8.90;6.30;;;;;;;12.92;41.84;96982.01;109246;1271;26452;-80
2023/04/05 06:22:47;;;;;;;8.40;6.20;;;;;;;13.40;41.67;96982.73;109247;1270;25408;-80
2023/04/05 06:25:18;;;;;;;8.70;6.20;;;;;;;13.75;41.17;96983.98;109286;1271;23131;-80
2023/04/05 06:27:49;;;;;;;9.30;6.50;;;;;;;13.93;40.37;96985.06;109211;1271;56245;-80
2023/04/05 06:30:20;;;;;;;10.80;6.90;;;;;;;14.56;40.47;96984.30;109273;1270;22554;-80
2023/04/05 06:32:53;;;;;;;10.20;6.60;;;;;;;15.18;39.68;96977.41;109222;1271;22543;-80
2023/04/05 06:35:25;;;;;;;9.90;7.70;;;;;;;15.18;35.72;96977.66;109317;1271;22531;-80
2023/04/05 06:37:56;;;;;;;9.30;7.00;;;;;;;14.52;37.45;96977.88;109189;1271;46235;-80
2023/04/05 06:40:27;;;;;;;8.80;6.90;;;;;;;15.16;37.53;96977.09;109292;1251;26511;-80
2023/04/05 06:42:58;;;;;;;8.80;7.20;;;;;;;15.65;37.49;96974.84;109255;1271;22537;-80
2023/04/05 06:45:30;;;;;;;10.80;7.70;;;;;;;16.37;36.52;96972.77;109196;1271;22571;-81
2023/04/05 06:48:03;;;;;;;9.30;6.50;;;;;;;16.16;34.04;96971.02;109137;1264;31011;-81
2023/04/05 06:50:35;;;;;;;8.40;6.10;;;;;;;15.37;32.64;96975.53;109172;1271;24268;-81
2023/04/05 06:53:06;;;;;;;6.80;4.80;;;;;;;14.77;33.47;96980.04;109265;1271;22550;-81
2023/04/05 06:55:37;;;;;;;7.70;5.90;;;;;;;15.26;34.17;96975.42;109272;1271;22524;-81
2023/04/05 06:58:09;;;;;;;7.90;5.40;;;;;;;16.12;34.33;96977.05;109145;1272;65909;-81
2023/04/05 07:00:40;;;;;;;5.00;4.40;;;;;;;16.87;34.33;96977.52;109294;1271;23143;-81
2023/04/05 07:03:11;;;;;;;7.30;4.80;;;;;;;17.78;34.04;96978.18;109260;1268;22571;-81
2023/04/05 07:05:49;;;;;;;7.40;4.30;;;;;;;18.10;32.83;96981.29;109252;1264;23041;-81
2023/04/05 07:08:21;;;;;;;5.40;4.70;;;;;;;18.56;33.43;96981.00;109239;1271;45754;-81
2023/04/05 07:10:53;;;;;;;6.10;3.60;;;;;;;18.97;32.15;96977.95;109240;1271;22560;-81
2023/04/05 07:13:25;;;;;;;6.40;3.80;;;;;;;19.08;31.78;96979.80;109252;1271;22566;-81
2023/04/05 07:16:01;;;;;;;6.10;3.60;;;;;;;19.48;30.18;96981.59;109260;1260;24220;-81
2023/04/05 07:18:33;;;;;;;3.50;2.90;;;;;;;19.85;31.21;96978.25;109223;1264;34323;-80
2023/04/05 07:21:05;;;;;;;4.40;4.00;;;;;;;20.80;30.99;96977.29;109249;1264;24666;-81
2023/04/05 07:23:36;;;;;;;4.70;3.20;;;;;;;21.99;31.67;96981.71;109216;1264;22524;-80
2023/04/05 07:26:07;;;;;;;5.20;3.80;;;;;;;22.73;30.51;96979.11;109241;1271;22559;-81
2023/04/05 07:28:39;;;;;;;4.00;3.20;;;;;;;23.22;30.05;96976.55;109209;1271;59189;-81
2023/04/05 07:31:10;;;;;;;4.80;3.60;;;;;;;22.98;26.05;96974.85;109253;1271;22599;-81
2023/04/05 07:33:41;;;;;;;4.30;3.50;;;;;;;21.73;26.61;96970.67;109184;1260;22572;-81
2023/04/05 07:36:12;;;;;;;5.90;4.00;;;;;;;20.78;26.08;96976.23;109243;1271;26592;-81
2023/04/05 07:38:43;;;;;;;5.00;4.10;;;;;;;20.48;26.80;96972.93;109467;1264;22631;-81
2023/04/05 07:41:17;;;;;;;5.30;4.10;;;;;;;20.43;27.64;96975.43;109478;1264;22540;-81
2023/04/05 07:43:48;;;;;;;4.70;3.50;;;;;;;20.85;26.58;96971.46;109513;1269;22566;-81
2023/04/05 07:46:21;;;;;;;4.30;3.30;;;;;;;20.39;24.71;96973.20;109489;1269;51974;-81
2023/04/05 07:48:52;;;;;;;4.50;3.30;;;;;;;19.35;23.69;96974.22;109314;1271;23107;-80
2023/04/05 07:51:23;;;;;;;3.50;3.10;;;;;;;17.79;23.86;96978.43;109215;1271;22521;-81
2023/04/05 07:53:54;;;;;;;4.30;3.40;;;;;;;16.53;23.18;96973.91;109348;1267;22550;-81
2023/04/05 07:56:25;;;;;;;5.00;3.70;;;;;;;15.43;24.14;96976.31;109256;1270;38013;-81
2023/04/05 07:58:56;;;;;;;5.00;3.60;;;;;;;15.18;25.85;96976.55;109224;1271;22544;-81
2023/04/05 08:01:27;;;;;;;5.70;3.30;;;;;;;16.59;28.25;96970.86;109212;1271;25233;-81
2023/04/05 08:03:58;;;;;;;5.00;3.60;;;;;;;19.22;28.52;96971.17;109221;1265;22524;-82
2023/04/05 08:06:30;;;;;;;5.50;3.70;;;;;;;20.14;27.90;96968.02;109235;1266;40651;-82
2023/04/05 08:09:02;;;;;;;4.80;3.50;;;;;;;21.18;28.32;96965.03;109219;1271;23090;-82
2023/04/05 08:11:33;;;;;;;4.10;2.90;;;;;;;21.81;26.82;96966.27;109311;1267;23419;-82
2023/04/05 08:14:06;;;;;;;3.80;3.10;;;;;;;22.16;26.39;96962.62;109303;1271;22534;-82
2023/04/05 08:16:37;;;;;;;4.80;3.20;;;;;;;21.90;24.33;96963.09;109273;1267;124540;-82
2023/04/05 08:19:08;;;;;;;4.00;3.20;;;;;;;20.28;25.71;96968.29;109247;1271;22588;-81
2023/04/05 08:21:39;;;;;;;5.00;3.40;;;;;;;21.48;25.73;96968.13;109248;1271;22526;-82
2023/04/05 08:24:10;;;;;;;5.40;3.20;;;;;;;22.52;25.91;96967.45;109313;1271;22593;-82
2023/04/05 08:26:42;;;;;;;4.20;3.20;;;;;;;23.40;24.95;96964.83;109244;1269;61517;-82
2023/04/05 08:29:13;;;;;;;5.50;3.20;;;;;;;23.15;23.44;96966.23;109227;1271;22645;-82
2023/04/05 08:31:45;;;;;;;4.20;3.20;;;;;;;21.39;23.07;96961.68;109154;1271;206070;-81
2023/04/05 08:34:16;;;;;;;3.80;2.80;;;;;;;20.23;23.07;96966.30;109236;1271;24335;-81
2023/04/05 08:36:47;;;;;;;4.60;3.00;;;;;;;18.75;23.88;96971.11;109203;1267;66543;-81
2023/04/05 08:39:18;;;;;;;4.90;3.20;;;;;;;16.79;24.53;96966.43;109222;1271;22521;-82
2023/04/05 08:41:56;;;;;;;5.90;2.90;;;;;;;18.41;26.79;96968.73;109257;1271;22634;-80
2023/04/05 08:44:30;;;;;;;4.60;2.80;;;;;;;19.52;24.71;96960.82;109235;1271;22544;-80
2023/04/05 08:47:02;;;;;;;5.30;3.30;;;;;;;17.03;24.80;96965.04;109170;1271;44443;-82
2023/04/05 08:49:33;;;;;;;5.20;2.90;;;;;;;14.93;26.47;96967.66;109317;1271;26493;-81
2023/04/05 08:52:06;;;;;;;5.20;2.90;;;;;;;15.08;26.86;96969.34;109295;1271;22528;-81
2023/04/05 08:54:38;;;;;;;6.90;3.00;;;;;;;14.83;27.55;96969.92;109344;1271;24030;-81
2023/04/05 08:57:10;;;;;;;5.60;3.30;;;;;;;15.08;27.49;96962.70;109172;1271;46515;-81
2023/04/05 08:59:44;;;;;;;5.80;3.80;;;;;;;14.04;27.10;96967.64;109258;1264;22919;-83
2023/04/05 09:02:18;;;;;;;3.60;3.00;;;;;;;12.81;27.75;96962.68;109304;1265;22534;-84
2023/04/05 09:04:50;;;;;;;6.40;4.40;;;;;;;10.70;28.57;96968.52;109344;1271;22702;-82
2023/04/05 09:07:22;;;;;;;5.60;3.90;;;;;;;10.81;30.77;96972.63;109281;1264;44288;-82
2023/04/05 09:09:58;;;;;;;8.20;3.70;;;;;;;11.21;29.83;96964.65;109292;1260;22592;-82
2023/04/05 09:12:30;;;;;;;5.90;3.60;;;;;;;9.56;30.00;96971.60;109323;1267;22522;-83
2023/04/05 09:15:02;;;;;;;6.20;3.80;;;;;;;8.82;31.45;96974.23;109291;1271;22494;-84
2023/04/05 09:17:33;;;;;;;4.70;3.10;;;;;;;8.69;32.05;96974.91;109306;1271;41737;-81
2023/04/05 09:20:05;;;;;;;6.30;3.50;;;;;;;8.27;31.34;96972.16;109170;1272;22522;-82
2023/04/05 09:22:45;;;;;;;4.90;3.60;;;;;;;7.37;32.36;96977.40;109197;1271;22653;-82
2023/04/05 09:25:37;;;;;;;5.50;3.50;;;;;;;6.94;33.51;96978.20;109298;1271;22588;-82
2023/04/05 09:28:08;;;;;;;6.40;4.20;;;;;;;7.09;34.62;96977.52;109363;1270;67113;-83
2023/04/05 09:30:45;;;;;;;6.40;4.30;;;;;;;7.20;34.62;96974.17;109312;1270;23166;-82
2023/04/05 09:33:21;;;;;;;8.50;4.70;;;;;;;6.57;33.95;96977.72;109223;1271;22532;-82
2023/04/05 09:35:55;;;;;;;6.00;4.40;;;;;;;5.79;34.95;96982.23;109288;1271;23022;-82
2023/04/05 09:38:44;;;;;;;7.00;4.40;;;;;;;5.60;35.99;96977.95;109262;1271;55767;-82
2023/04/05 09:41:15;;;;;;;7.90;4.80;;;;;;;5.26;36.33;96980.34;109253;1271;22585;-82
2023/04/05 09:43:46;;;;;;;6.30;4.50;;;;;;;4.91;36.72;96980.88;109310;1271;22520;-82
2023/04/05 09:46:32;;;;;;;6.70;4.30;;;;;;;4.61;36.88;96975.95;109257;1267;42460;-82
2023/04/05 09:49:05;;;;;;;8.90;4.60;;;;;;;4.51;37.31;96976.12;109487;1271;22580;-82
2023/04/05 09:51:38;;;;;;;6.40;4.40;;;;;;;4.52;38.57;96974.93;109330;1271;22564;-81
2023/04/05 09:54:11;;;;;;;7.10;4.30;;;;;;;4.90;38.89;96978.59;109334;1271;23601;-82
2023/04/05 09:56:55;;;;;;;8.90;4.90;;;;;;;4.72;38.02;96976.83;109212;1271;72197;-82
2023/04/05 09:59:27;;;;;;;9.10;5.50;;;;;;;4.46;38.38;96975.02;109256;1271;22649;-82
2023/04/05 10:01:58;;;;;;;8.20;4.80;;;;;;;4.30;39.13;96976.35;109313;1271;22615;-82
2023/04/05 10:04:40;;;;;;;8.90;4.90;;;;;;;4.34;39.28;96975.18;109311;1271;22540;-84
2023/04/05 10:07:14;;;;;;;7.70;4.70;;;;;;;4.44;39.79;96975.13;109256;1271;57216;-83
2023/04/05 10:09:47;;;;;;;7.00;4.60;;;;;;;4.49;39.76;96974.70;109307;1271;22572;-82
2023/04/05 10:12:25;;;;;;;7.70;4.50;;;;;;;4.44;39.48;96972.83;109292;1271;23334;-81
2023/04/05 10:14:56;;;;;;;7.30;4.20;;;;;;;4.45;39.99;96968.59;109289;1271;22645;-82
2023/04/05 10:17:31;;;;;;;6.00;4.00;;;;;;;4.54;40.36;96968.20;109242;1271;68933;-82
2023/04/05 10:20:14;;;;;;;8.20;4.80;;;;;;;4.63;40.02;96962.45;109301;1264;25236;-82
2023/04/05 10:22:57;;;;;;;6.80;4.00;;;;;;;4.52;41.36;96962.96;109344;1264;25259;-83
2023/04/05 10:25:32;;;;;;;7.30;4.30;;;;;;;4.53;40.56;96966.96;109309;1265;23264;-82
2023/04/05 10:28:06;;;;;;;6.70;4.90;;;;;;;4.51;40.66;96964.79;109275;1271;34030;-82
2023/04/05 10:30:42;;;;;;;6.30;4.40;;;;;;;4.52;40.17;96963.96;109248;1271;23356;-83
2023/04/05 10:33:22;;;;;;;8.40;4.70;;;;;;;4.52;40.63;96961.67;109261;1271;23513;-83
2023/04/05 10:36:07;;;;;;;7.30;4.30;;;;;;;4.55;40.69;96961.20;109313;1271;25328;-83
2023/04/05 10:39:02;;;;;;;6.50;4.00;;;;;;;4.65;40.81;96957.05;109228;1271;80336;-82
2023/04/05 10:44:47;;;;;;;7.90;4.30;;;;;;;5.03;41.27;96959.73;109251;1271;22584;-82
2023/04/05 10:47:23;;;;;;;8.90;4.50;;;;;;;4.97;40.36;96956.16;109229;1264;42320;-83
2023/04/05 10:49:56;;;;;;;7.70;5.10;;;;;;;4.97;40.39;96956.14;109337;1264;25495;-83
2023/04/05 10:52:29;;;;;;;6.30;4.00;;;;;;;5.05;40.54;96954.34;109606;1270;25442;-83
2023/04/05 10:55:03;;;;;;;8.80;5.20;;;;;;;4.88;40.17;96952.88;109423;1270;22582;-83
2023/04/05 10:57:35;;;;;;;8.80;4.90;;;;;;;4.72;40.62;96953.91;109409;1267;33413;-82
2023/04/05 11:00:11;;;;;;;9.40;5.90;;;;;;;4.56;41.08;96954.16;109529;1263;22528;-83
2023/04/05 11:02:42;;;;;;;8.70;5.50;;;;;;;4.40;41.21;96956.95;109329;1268;25461;-83
2023/04/05 11:05:34;;;;;;;8.90;5.80;;;;;;;4.11;40.90;96957.51;109351;1266;22532;-83
2023/04/05 11:08:11;;;;;;;8.20;5.00;;;;;;;3.80;41.22;96956.84;109320;1270;55434;-83
2023/04/05 11:10:43;;;;;;;9.60;6.00;;;;;;;3.62;41.48;96961.60;109449;1264;24161;-82
2023/04/05 11:13:14;;;;;;;8.90;5.90;;;;;;;3.53;41.71;96962.27;109542;1269;22508;-81
2023/04/05 11:15:45;;;;;;;10.10;6.50;;;;;;;3.60;42.50;96961.12;109625;1263;22831;-83
2023/04/05 11:18:23;;;;;;;10.20;5.40;;;;;;;3.75;43.14;96960.28;109262;1270;51057;-82
2023/04/05 11:21:05;;;;;;;8.90;6.00;;;;;;;3.88;43.09;96956.14;109299;1264;22626;-83
2023/04/05 11:24:11;;;;;;;11.40;5.70;;;;;;;4.00;43.62;96958.45;109236;1271;22554;-82
2023/04/05 11:26:57;;;;;;;12.10;6.50;;;;;;;4.19;43.87;96957.89;109274;1271;68970;-83
2023/04/05 11:29:53;;;;;;;13.40;6.40;;;;;;;4.36;43.36;96953.80;109300;1271;22523;-84
2023/04/05 11:32:37;;;;;;;11.40;6.40;;;;;;;4.59;43.45;96954.98;109300;1271;22538;-82
2023/04/05 11:35:13;;;;;;;9.30;6.40;;;;;;;4.76;43.74;96956.58;109353;1271;25212;-83
2023/04/05 11:38:07;;;;;;;10.00;6.40;;;;;;;4.85;43.43;96952.70;109202;1271;53062;-84
2023/04/05 11:40:41;;;;;;;8.90;6.00;;;;;;;4.80;41.80;96951.25;109246;1271;22574;-83
2023/04/05 11:43:13;;;;;;;9.50;5.80;;;;;;;4.45;41.73;96944.06;109380;1271;22536;-84
2023/04/05 11:45:46;;;;;;;10.90;6.40;;;;;;;4.41;42.29;96943.27;109286;1271;22538;-83
2023/04/05 11:48:17;;;;;;;10.60;6.50;;;;;;;4.42;42.52;96938.77;109281;1271;98547;-83
2023/04/05 11:50:50;;;;;;;11.70;6.60;;;;;;;4.27;42.97;96942.77;109357;1271;22567;-83
2023/04/05 11:53:22;;;;;;;9.40;5.90;;;;;;;3.92;42.89;96943.02;109386;1271;22539;-83
2023/04/05 11:55:54;;;;;;;9.00;6.10;;;;;;;4.10;43.93;96942.31;109300;1271;22556;-83